createdAt,value
2023-02-15T00:01:44.908Z,76.40
2023-02-15T00:04:14.845Z,76.30
2023-02-15T00:06:41.856Z,76.20
2023-02-15T00:09:10.168Z,76.10
2023-02-15T00:11:52.866Z,76.20
2023-02-15T00:14:24.368Z,76.50
2023-02-15T00:16:53.547Z,76.40
2023-02-15T00:19:21.110Z,76.30
2023-02-15T00:21:49.108Z,76.20
2023-02-15T00:24:16.800Z,76.10
2023-02-15T00:26:44.313Z,76.20
2023-02-15T00:29:12.038Z,76.50
2023-02-15T00:31:39.491Z,76.60
2023-02-15T00:34:07.396Z,76.50
2023-02-15T00:36:34.663Z,76.40
2023-02-15T00:39:01.536Z,76.30
2023-02-15T00:41:28.438Z,76.40
2023-02-15T00:43:55.318Z,76.50
2023-02-15T00:46:22.282Z,76.50
2023-02-15T00:48:49.357Z,76.40
2023-02-15T00:51:16.400Z,76.30
2023-02-15T00:53:43.278Z,76.00
2023-02-15T00:56:10.127Z,76.10
2023-02-15T00:58:37.206Z,76.20
2023-02-15T01:01:08.718Z,76.10
2023-02-15T01:03:36.040Z,76.10
2023-02-15T01:06:04.107Z,76.10
2023-02-15T01:08:31.080Z,76.30
2023-02-15T01:10:58.410Z,76.30
2023-02-15T01:13:25.270Z,76.40
2023-02-15T01:15:55.905Z,76.60
2023-02-15T01:18:23.394Z,76.50
2023-02-15T01:20:50.427Z,76.30
2023-02-15T01:23:17.363Z,75.90
2023-02-15T01:25:44.236Z,76.20
2023-02-15T01:28:11.875Z,76.40
2023-02-15T01:30:38.903Z,76.40
2023-02-15T01:33:05.709Z,76.60
2023-02-15T01:35:32.956Z,76.70
2023-02-15T01:37:59.844Z,76.80
2023-02-15T01:40:27.019Z,76.80
2023-02-15T01:42:54.417Z,76.70
2023-02-15T01:45:23.019Z,76.50
2023-02-15T01:48:10.150Z,76.40
2023-02-15T01:50:45.343Z,76.50
2023-02-15T01:53:17.826Z,76.60
2023-02-15T01:55:46.919Z,76.60
2023-02-15T01:58:15.337Z,76.40
2023-02-15T02:00:42.339Z,76.40
2023-02-15T02:03:09.514Z,76.40
2023-02-15T02:05:36.909Z,76.40
2023-02-15T02:08:04.021Z,76.60
2023-02-15T02:10:31.313Z,76.50
2023-02-15T02:13:00.338Z,76.40
2023-02-15T02:15:53.677Z,76.40
2023-02-15T02:18:39.324Z,76.40
2023-02-15T02:21:06.119Z,76.50
2023-02-15T02:23:52.400Z,76.50
2023-02-15T02:26:22.570Z,76.70
2023-02-15T02:28:49.406Z,76.70
2023-02-15T02:31:16.309Z,76.70
2023-02-15T02:33:55.133Z,76.80
2023-02-15T02:36:25.561Z,76.80
2023-02-15T02:39:04.635Z,76.80
2023-02-15T02:41:51.771Z,76.70
2023-02-15T02:44:28.057Z,76.60
2023-02-15T02:46:58.851Z,76.70
2023-02-15T02:49:52.033Z,76.70
2023-02-15T02:52:37.678Z,76.60
2023-02-15T02:55:07.227Z,76.50
2023-02-15T02:57:35.117Z,76.60
2023-02-15T03:00:04.070Z,76.60
2023-02-15T03:02:33.132Z,76.60
2023-02-15T03:05:04.879Z,76.60
2023-02-15T03:07:32.887Z,76.40
2023-02-15T03:10:01.382Z,76.40
2023-02-15T03:12:30.965Z,76.50
2023-02-15T03:15:04.040Z,76.40
2023-02-15T03:17:32.859Z,76.30
2023-02-15T03:20:01.762Z,76.30
2023-02-15T03:22:37.305Z,76.40
2023-02-15T03:25:11.206Z,76.40
2023-02-15T03:27:41.201Z,76.30
2023-02-15T03:30:09.515Z,76.30
2023-02-15T03:32:37.114Z,76.00
2023-02-15T03:35:04.381Z,75.80
2023-02-15T03:37:34.183Z,75.90
2023-02-15T03:40:26.325Z,76.10
2023-02-15T03:43:22.759Z,76.10
2023-02-15T03:45:58.520Z,76.00
2023-02-15T03:48:28.197Z,75.80
2023-02-15T03:51:15.851Z,75.90
2023-02-15T03:53:43.147Z,75.90
2023-02-15T03:56:10.151Z,75.80
2023-02-15T03:58:55.371Z,75.80
2023-02-15T04:01:50.484Z,75.80
2023-02-15T04:04:20.352Z,75.80
2023-02-15T04:06:47.704Z,76.00
2023-02-15T04:09:33.308Z,76.00
2023-02-15T04:12:00.196Z,76.00
2023-02-15T04:14:45.533Z,76.10
2023-02-15T04:17:12.888Z,76.20
2023-02-15T04:19:58.187Z,76.20
2023-02-15T04:22:43.412Z,76.20
2023-02-15T04:25:16.006Z,76.10
2023-02-15T04:27:44.368Z,76.20
2023-02-15T04:30:11.911Z,76.10
2023-02-15T04:32:39.611Z,76.00
2023-02-15T04:35:07.394Z,76.10
2023-02-15T04:37:34.476Z,76.10
2023-02-15T04:40:01.276Z,76.10
2023-02-15T04:42:28.348Z,76.10
2023-02-15T04:44:55.382Z,76.10
2023-02-15T04:47:22.432Z,75.90
2023-02-15T04:49:49.308Z,75.90
2023-02-15T04:52:16.498Z,75.90
2023-02-15T04:54:43.378Z,76.00
2023-02-15T04:57:10.493Z,76.00
2023-02-15T04:59:37.308Z,76.00
2023-02-15T05:02:04.372Z,76.10
2023-02-15T05:04:31.254Z,76.10
2023-02-15T05:06:58.216Z,76.20
2023-02-15T05:09:25.098Z,76.20
2023-02-15T05:11:51.959Z,76.20
2023-02-15T05:14:18.898Z,76.30
2023-02-15T05:16:46.144Z,76.30
2023-02-15T05:19:13.177Z,76.10
2023-02-15T05:21:41.348Z,76.10
2023-02-15T05:24:26.742Z,76.00
2023-02-15T05:27:12.254Z,76.30
2023-02-15T05:29:39.072Z,76.20
2023-02-15T05:32:06.044Z,76.20
2023-02-15T05:34:32.940Z,76.40
2023-02-15T05:36:59.768Z,76.60
2023-02-15T05:39:26.605Z,76.50
2023-02-15T05:41:53.469Z,76.50
2023-02-15T05:44:20.410Z,76.40
2023-02-15T05:46:47.255Z,76.10
2023-02-15T05:49:14.103Z,75.90
2023-02-15T05:51:40.914Z,76.30
2023-02-15T05:54:07.870Z,76.30
2023-02-15T05:56:34.728Z,76.40
2023-02-15T05:59:01.545Z,76.50
2023-02-15T06:01:28.466Z,76.60
2023-02-15T06:03:56.794Z,76.70
2023-02-15T06:06:23.712Z,76.60
2023-02-15T06:08:50.608Z,76.80
2023-02-15T06:11:17.635Z,76.90
2023-02-15T06:13:44.640Z,76.70
2023-02-15T06:16:11.635Z,76.70
2023-02-15T06:18:38.642Z,76.70
2023-02-15T06:21:05.572Z,76.50
2023-02-15T06:23:32.417Z,76.60
2023-02-15T06:25:59.354Z,76.40
2023-02-15T06:28:26.684Z,76.40
2023-02-15T06:30:53.654Z,76.60
2023-02-15T06:33:20.649Z,76.70
2023-02-15T06:35:47.796Z,76.60
2023-02-15T06:38:14.667Z,76.70
2023-02-15T06:40:41.695Z,76.50
2023-02-15T06:43:08.543Z,76.40
2023-02-15T06:45:35.516Z,76.20
2023-02-15T06:48:02.424Z,76.20
2023-02-15T06:50:29.337Z,76.40
2023-02-15T06:52:56.868Z,76.50
2023-02-15T06:55:23.757Z,76.50
2023-02-15T06:57:51.162Z,76.60
2023-02-15T07:00:18.818Z,76.50
2023-02-15T07:02:45.822Z,76.30
2023-02-15T07:05:12.941Z,75.90
2023-02-15T07:07:39.854Z,76.10
2023-02-15T07:10:07.630Z,76.20
2023-02-15T07:12:43.783Z,76.30
2023-02-15T07:15:15.485Z,76.30
2023-02-15T07:17:43.001Z,76.40
2023-02-15T07:20:11.801Z,76.20
2023-02-15T07:22:38.963Z,76.30
2023-02-15T07:25:06.756Z,76.60
2023-02-15T07:27:33.794Z,76.60
2023-02-15T07:30:01.183Z,76.60
2023-02-15T07:32:29.082Z,76.50
2023-02-15T07:34:56.323Z,76.40
2023-02-15T07:37:23.192Z,76.40
2023-02-15T07:39:50.123Z,76.50
2023-02-15T07:42:17.012Z,76.50
2023-02-15T07:44:44.008Z,76.40
2023-02-15T07:47:10.894Z,76.40
2023-02-15T07:49:37.783Z,76.50
2023-02-15T07:52:04.753Z,76.40
2023-02-15T07:54:31.653Z,76.50
2023-02-15T07:56:58.489Z,76.60
2023-02-15T07:59:25.989Z,76.50
2023-02-15T08:01:55.345Z,76.40
2023-02-15T08:04:22.169Z,76.30
2023-02-15T08:06:52.918Z,76.10
2023-02-15T08:09:19.876Z,75.80
2023-02-15T08:11:47.816Z,75.90
2023-02-15T08:14:16.032Z,76.00
2023-02-15T08:16:47.646Z,76.10
2023-02-15T08:19:14.550Z,76.10
2023-02-15T08:21:43.046Z,76.10
2023-02-15T08:24:10.870Z,76.10
2023-02-15T08:26:41.761Z,75.90
2023-02-15T08:29:09.886Z,75.90
2023-02-15T08:31:38.730Z,75.70
2023-02-15T08:34:06.296Z,75.80
2023-02-15T08:36:33.186Z,75.80
2023-02-15T08:39:00.907Z,75.90
2023-02-15T08:41:30.431Z,75.90
2023-02-15T08:43:58.544Z,76.10
2023-02-15T08:46:26.277Z,76.20
2023-02-15T08:48:53.325Z,76.10
2023-02-15T08:51:21.980Z,76.00
2023-02-15T08:53:52.872Z,75.80
2023-02-15T08:56:21.213Z,75.70
2023-02-15T08:58:48.126Z,75.70
2023-02-15T09:01:21.794Z,75.60
2023-02-15T09:03:50.320Z,75.70
2023-02-15T09:06:17.922Z,75.70
2023-02-15T09:08:46.250Z,75.70
2023-02-15T09:11:23.326Z,75.70
2023-02-15T09:13:54.709Z,75.50
2023-02-15T09:16:22.634Z,75.40
2023-02-15T09:18:49.933Z,75.30
2023-02-15T09:21:17.981Z,75.00
2023-02-15T09:23:46.221Z,75.00
2023-02-15T09:26:14.487Z,75.10
2023-02-15T09:28:41.953Z,75.10
2023-02-15T09:31:10.702Z,75.30
2023-02-15T09:33:38.020Z,75.40
2023-02-15T09:36:07.135Z,75.40
2023-02-15T09:38:34.150Z,75.40
2023-02-15T09:41:19.732Z,75.30
2023-02-15T09:43:52.584Z,75.00
2023-02-15T09:46:37.857Z,74.80
2023-02-15T09:49:27.855Z,74.80
2023-02-15T09:52:18.739Z,74.80
2023-02-15T09:54:54.539Z,75.00
2023-02-15T09:57:29.730Z,75.30
2023-02-15T10:00:05.358Z,75.40
2023-02-15T10:02:51.157Z,75.50
2023-02-15T10:05:36.683Z,75.10
2023-02-15T10:08:18.528Z,74.80
2023-02-15T10:10:46.379Z,74.60
2023-02-15T10:13:23.238Z,74.60
2023-02-15T10:15:53.307Z,75.00
2023-02-15T10:18:38.783Z,75.10
2023-02-15T10:21:09.834Z,75.10
2023-02-15T10:23:36.728Z,75.10
2023-02-15T10:26:17.773Z,75.10
2023-02-15T10:28:52.652Z,75.10
2023-02-15T10:31:22.407Z,75.00
2023-02-15T10:33:52.060Z,74.90
2023-02-15T10:36:21.713Z,74.70
2023-02-15T10:39:03.887Z,74.70
2023-02-15T10:41:50.071Z,74.70
2023-02-15T10:44:35.499Z,74.70
2023-02-15T10:47:05.288Z,74.60
2023-02-15T10:49:50.898Z,74.50
2023-02-15T10:52:21.452Z,74.40
2023-02-15T10:55:10.165Z,74.50
2023-02-15T10:57:45.655Z,74.40
2023-02-15T11:00:20.714Z,73.80
2023-02-15T11:02:56.747Z,74.00
2023-02-15T11:05:26.748Z,74.10
2023-02-15T11:07:55.332Z,74.40
2023-02-15T11:10:28.233Z,74.40
2023-02-15T11:12:56.740Z,74.30
2023-02-15T11:15:26.619Z,74.30
2023-02-15T11:17:57.517Z,74.10
2023-02-15T11:20:26.809Z,73.90
2023-02-15T11:22:54.718Z,73.90
2023-02-15T11:25:26.693Z,73.90
2023-02-15T11:27:54.518Z,73.90
2023-02-15T11:30:23.401Z,74.10
2023-02-15T11:32:53.329Z,74.30
2023-02-15T11:35:25.984Z,74.40
2023-02-15T11:37:55.919Z,74.40
2023-02-15T11:40:25.876Z,74.30
2023-02-15T11:42:54.551Z,74.30
2023-02-15T11:45:21.355Z,74.40
2023-02-15T11:47:48.284Z,74.40
2023-02-15T11:50:23.472Z,74.40
2023-02-15T11:52:52.199Z,74.30
2023-02-15T11:55:23.547Z,74.30
2023-02-15T11:57:56.885Z,74.30
2023-02-15T12:00:40.714Z,74.30
2023-02-15T12:03:34.105Z,74.10
2023-02-15T12:06:05.511Z,74.00
2023-02-15T12:08:45.039Z,73.90
2023-02-15T12:11:18.702Z,74.00
2023-02-15T12:14:02.434Z,74.00
2023-02-15T12:16:30.746Z,73.90
2023-02-15T12:18:58.897Z,73.80
2023-02-15T12:21:27.758Z,73.70
2023-02-15T12:23:59.509Z,73.60
2023-02-15T12:26:28.173Z,73.60
2023-02-15T12:28:55.645Z,73.50
2023-02-15T12:31:24.535Z,73.60
2023-02-15T12:33:53.760Z,73.50
2023-02-15T12:36:22.374Z,73.40
2023-02-15T12:39:04.226Z,73.40
2023-02-15T12:41:31.223Z,73.40
2023-02-15T12:44:14.297Z,73.10
2023-02-15T12:46:42.401Z,72.70
2023-02-15T12:49:09.359Z,72.80
2023-02-15T12:51:48.181Z,73.00
2023-02-15T12:54:47.613Z,73.20
2023-02-15T12:57:26.933Z,73.30
2023-02-15T12:59:53.839Z,73.20
2023-02-15T13:02:32.103Z,73.40
2023-02-15T13:05:05.450Z,73.30
2023-02-15T13:07:33.361Z,73.20
2023-02-15T13:10:00.529Z,73.20
2023-02-15T13:12:30.119Z,73.30
2023-02-15T13:14:58.428Z,73.00
2023-02-15T13:17:32.911Z,73.10
2023-02-15T13:20:03.770Z,73.20
2023-02-15T13:22:37.541Z,73.30
2023-02-15T13:25:12.829Z,73.20
2023-02-15T13:27:42.351Z,73.40
2023-02-15T13:30:19.849Z,73.20
2023-02-15T13:32:47.621Z,73.00
2023-02-15T13:35:18.732Z,72.80
2023-02-15T13:37:45.868Z,72.60
2023-02-15T13:40:17.469Z,72.70
2023-02-15T13:42:45.683Z,73.10
2023-02-15T13:45:37.041Z,73.50
2023-02-15T13:48:13.810Z,73.60
2023-02-15T13:51:03.321Z,73.60
2023-02-15T13:53:36.511Z,73.30
2023-02-15T13:56:09.039Z,73.20
2023-02-15T13:58:41.923Z,73.40
2023-02-15T14:01:19.372Z,73.30
2023-02-15T14:03:49.093Z,73.10
2023-02-15T14:06:34.175Z,73.30
2023-02-15T14:09:13.249Z,73.40
2023-02-15T14:11:58.519Z,73.40
2023-02-15T14:14:28.513Z,73.30
2023-02-15T14:17:07.132Z,73.20
2023-02-15T14:19:46.893Z,73.00
2023-02-15T14:22:13.791Z,72.90
2023-02-15T14:24:47.706Z,72.80
2023-02-15T14:27:28.266Z,72.70
2023-02-15T14:29:55.951Z,72.60
2023-02-15T14:32:36.531Z,72.50
2023-02-15T14:35:13.646Z,72.70
2023-02-15T14:37:44.378Z,73.00
2023-02-15T14:40:32.248Z,72.90
2023-02-15T14:43:06.540Z,72.90
2023-02-15T14:45:44.213Z,72.90
2023-02-15T14:48:21.369Z,73.00
2023-02-15T14:50:48.874Z,73.00
2023-02-15T14:53:28.646Z,73.10
2023-02-15T14:56:19.372Z,73.00
2023-02-15T14:58:55.541Z,72.90
2023-02-15T15:01:28.523Z,72.70
2023-02-15T15:03:57.657Z,72.50
2023-02-15T15:06:26.592Z,72.40
2023-02-15T15:08:56.859Z,72.70
2023-02-15T15:11:42.524Z,72.80
2023-02-15T15:14:10.757Z,72.90
2023-02-15T15:16:38.207Z,72.80
2023-02-15T15:19:07.420Z,72.80
2023-02-15T15:21:49.473Z,72.80
2023-02-15T15:24:35.037Z,72.90
2023-02-15T15:27:20.616Z,72.80
2023-02-15T15:29:47.816Z,72.90
2023-02-15T15:32:19.406Z,73.00
2023-02-15T15:34:55.304Z,73.00
2023-02-15T15:37:33.438Z,73.10
2023-02-15T15:40:19.499Z,73.00
2023-02-15T15:43:01.133Z,73.00
2023-02-15T15:45:31.022Z,72.90
2023-02-15T15:48:06.620Z,72.90
2023-02-15T15:50:34.640Z,72.80
2023-02-15T15:53:02.464Z,72.80
2023-02-15T15:55:31.756Z,73.00
2023-02-15T15:58:02.324Z,73.00
2023-02-15T16:00:29.318Z,72.90
2023-02-15T16:02:57.674Z,72.90
2023-02-15T16:05:24.708Z,73.00
2023-02-15T16:07:51.665Z,72.90
2023-02-15T16:10:23.121Z,73.00
2023-02-15T16:12:50.941Z,73.00
2023-02-15T16:15:19.967Z,72.90
2023-02-15T16:17:50.808Z,72.80
2023-02-15T16:20:20.162Z,72.90
2023-02-15T16:22:48.401Z,73.10
2023-02-15T16:25:15.325Z,73.10
2023-02-15T16:27:43.278Z,73.30
2023-02-15T16:30:25.504Z,73.30
2023-02-15T16:32:56.710Z,73.00
2023-02-15T16:35:24.797Z,72.80
2023-02-15T16:37:51.757Z,72.70
2023-02-15T16:40:24.760Z,72.70
2023-02-15T16:42:56.266Z,72.90
2023-02-15T16:45:25.351Z,72.90
2023-02-15T16:47:54.605Z,72.90
2023-02-15T16:50:27.901Z,72.90
2023-02-15T16:52:54.972Z,72.90
2023-02-15T16:55:23.400Z,72.70
2023-02-15T16:57:51.360Z,72.60
2023-02-15T17:00:24.040Z,72.50
2023-02-15T17:02:56.718Z,72.50
2023-02-15T17:05:24.124Z,72.50
2023-02-15T17:08:06.271Z,72.50
2023-02-15T17:10:36.854Z,72.40
2023-02-15T17:13:14.027Z,72.30
2023-02-15T17:15:42.402Z,72.20
2023-02-15T17:18:20.663Z,72.20
2023-02-15T17:20:48.826Z,72.20
2023-02-15T17:23:29.191Z,72.10
2023-02-15T17:25:56.383Z,72.00
2023-02-15T17:28:28.000Z,72.10
2023-02-15T17:30:56.133Z,72.10
2023-02-15T17:33:23.144Z,72.10
2023-02-15T17:36:12.521Z,72.10
2023-02-15T17:38:40.756Z,72.40
2023-02-15T17:41:08.389Z,72.50
2023-02-15T17:43:36.397Z,72.50
2023-02-15T17:46:03.454Z,72.50
2023-02-15T17:48:37.414Z,72.50
2023-02-15T17:51:06.194Z,72.40
2023-02-15T17:53:33.523Z,72.30
2023-02-15T17:56:00.459Z,72.30
2023-02-15T17:58:27.426Z,72.30
2023-02-15T18:01:17.250Z,72.20
2023-02-15T18:04:10.028Z,72.30
2023-02-15T18:06:57.182Z,72.30
2023-02-15T18:09:42.559Z,72.30
2023-02-15T18:12:20.999Z,72.30
2023-02-15T18:14:48.815Z,72.10
2023-02-15T18:17:20.324Z,72.10
2023-02-15T18:19:47.386Z,72.00
2023-02-15T18:22:19.069Z,71.90
2023-02-15T18:24:47.229Z,71.90
2023-02-15T18:27:14.555Z,71.80
2023-02-15T18:29:41.983Z,71.70
2023-02-15T18:32:10.631Z,71.90
2023-02-15T18:34:39.528Z,72.00
2023-02-15T18:37:07.500Z,72.00
2023-02-15T18:39:42.618Z,72.00
2023-02-15T18:42:18.844Z,72.00
2023-02-15T18:44:45.805Z,71.90
2023-02-15T18:47:12.665Z,71.90
2023-02-15T18:49:39.634Z,71.80
2023-02-15T18:52:06.630Z,71.60
2023-02-15T18:54:33.560Z,71.70
2023-02-15T18:57:01.614Z,71.70
2023-02-15T18:59:30.587Z,71.60
2023-02-15T19:01:58.348Z,71.60
2023-02-15T19:04:26.017Z,71.60
2023-02-15T19:06:53.074Z,71.60
2023-02-15T19:09:21.282Z,71.50
2023-02-15T19:11:52.789Z,71.60
2023-02-15T19:14:25.207Z,71.60
2023-02-15T19:16:52.241Z,71.80
2023-02-15T19:19:19.241Z,71.70
2023-02-15T19:21:46.181Z,71.70
2023-02-15T19:24:16.036Z,71.40
2023-02-15T19:26:46.150Z,71.50
2023-02-15T19:29:14.858Z,71.60
2023-02-15T19:31:42.611Z,71.90
2023-02-15T19:34:13.214Z,72.10
2023-02-15T19:36:40.238Z,72.10
2023-02-15T19:39:09.965Z,71.80
2023-02-15T19:41:38.531Z,71.80
2023-02-15T19:44:05.431Z,71.80
2023-02-15T19:46:32.893Z,71.90
2023-02-15T19:49:00.047Z,71.80
2023-02-15T19:51:27.946Z,71.80
2023-02-15T19:53:57.840Z,71.70
2023-02-15T19:56:24.924Z,71.80
2023-02-15T19:58:58.757Z,71.90
2023-02-15T20:01:25.757Z,71.90
2023-02-15T20:03:53.685Z,72.00
2023-02-15T20:06:21.197Z,72.00
2023-02-15T20:08:48.248Z,72.00
2023-02-15T20:11:15.157Z,72.00
2023-02-15T20:13:42.077Z,72.10
2023-02-15T20:16:09.932Z,72.10
2023-02-15T20:18:37.633Z,72.40
2023-02-15T20:21:05.218Z,72.30
2023-02-15T20:23:35.659Z,72.40
2023-02-15T20:26:10.811Z,72.40
2023-02-15T20:28:37.793Z,72.40
2023-02-15T20:31:05.023Z,72.30
2023-02-15T20:33:32.209Z,72.30
2023-02-15T20:35:59.717Z,72.40
2023-02-15T20:38:28.765Z,72.40
2023-02-15T20:41:15.106Z,72.40
2023-02-15T20:43:42.167Z,72.40
2023-02-15T20:46:09.389Z,72.50
2023-02-15T20:48:36.346Z,72.10
2023-02-15T20:51:03.863Z,72.10
2023-02-15T20:53:31.095Z,72.20
2023-02-15T20:55:58.089Z,72.20
2023-02-15T20:58:27.075Z,72.20
2023-02-15T21:00:54.938Z,72.20
2023-02-15T21:03:23.096Z,72.30
2023-02-15T21:05:50.406Z,72.40
2023-02-15T21:08:18.865Z,72.50
2023-02-15T21:10:46.836Z,72.40
2023-02-15T21:13:22.868Z,72.30
2023-02-15T21:15:50.840Z,72.30
2023-02-15T21:18:27.974Z,72.30
2023-02-15T21:20:56.750Z,72.20
2023-02-15T21:23:25.658Z,72.40
2023-02-15T21:25:52.651Z,72.50
2023-02-15T21:28:21.289Z,72.60
2023-02-15T21:30:48.865Z,72.50
2023-02-15T21:33:16.313Z,72.60
2023-02-15T21:35:44.584Z,72.70
2023-02-15T21:38:15.921Z,72.80
2023-02-15T21:40:43.090Z,73.00
2023-02-15T21:43:35.875Z,72.90
2023-02-15T21:46:29.429Z,73.00
2023-02-15T21:48:56.402Z,72.90
2023-02-15T21:51:41.619Z,73.10
2023-02-15T21:54:12.906Z,73.20
2023-02-15T21:56:41.568Z,73.20
2023-02-15T21:59:15.699Z,73.10
2023-02-15T22:01:45.126Z,73.00
2023-02-15T22:04:13.539Z,73.20
2023-02-15T22:06:40.914Z,73.00
2023-02-15T22:09:15.425Z,72.90
2023-02-15T22:11:42.478Z,73.00
2023-02-15T22:14:29.763Z,73.00
2023-02-15T22:16:56.595Z,72.90
2023-02-15T22:19:23.568Z,72.90
2023-02-15T22:21:50.384Z,72.90
2023-02-15T22:24:17.243Z,72.90
2023-02-15T22:26:47.946Z,72.80
2023-02-15T22:29:18.176Z,73.00
2023-02-15T22:31:45.297Z,73.10
2023-02-15T22:34:26.310Z,73.20
2023-02-15T22:36:53.785Z,73.30
2023-02-15T22:39:22.316Z,73.40
2023-02-15T22:41:49.273Z,73.40
2023-02-15T22:44:17.589Z,73.00
2023-02-15T22:46:44.514Z,73.00
2023-02-15T22:49:14.903Z,73.30
2023-02-15T22:51:41.904Z,73.60
2023-02-15T22:54:08.703Z,73.60
2023-02-15T22:56:53.866Z,73.50
2023-02-15T22:59:23.962Z,73.30
2023-02-15T23:01:51.235Z,73.40
2023-02-15T23:04:18.991Z,73.30
2023-02-15T23:06:45.956Z,73.30
2023-02-15T23:09:12.879Z,73.20
2023-02-15T23:11:39.893Z,73.30
2023-02-15T23:14:06.995Z,73.40
2023-02-15T23:16:34.931Z,73.40
2023-02-15T23:19:10.937Z,73.40
2023-02-15T23:21:39.640Z,73.30
2023-02-15T23:24:22.512Z,73.30
2023-02-15T23:26:49.821Z,73.10
2023-02-15T23:29:18.524Z,73.20
2023-02-15T23:31:46.984Z,73.20
2023-02-15T23:34:15.679Z,73.10
2023-02-15T23:36:44.727Z,72.80
2023-02-15T23:39:36.233Z,72.90
2023-02-15T23:42:05.062Z,73.10
2023-02-15T23:44:32.373Z,73.30
2023-02-15T23:46:59.418Z,73.40
2023-02-15T23:49:26.298Z,73.40
2023-02-15T23:51:53.880Z,73.40
2023-02-15T23:54:21.941Z,73.30
2023-02-15T23:56:50.956Z,73.10
2023-02-15T23:59:22.898Z,73.10
